Time;durP1;ratioP1;P1;durP2;ratioP2;P2;SDS_P1;SDS_P2;PMS_P1;PMS_P2;Temp;Humidity;BMP_temperature;BMP_pressure;BME280_temperature;BME280_humidity;BME280_pressure;Samples;Min_cycle;Max_cycle;Signal;HPM_P1;HPM_P2
2023/12/25 00:00:19;;;;;;;1.00;0.73;;;;;;;9.55;100.00;97235.31;6103551;19;20314;-73
2023/12/25 00:02:19;;;;;;;1.00;0.88;;;;;;;9.52;100.00;97252.69;6101805;19;19998;-73
2023/12/25 00:04:20;;;;;;;1.33;1.23;;;;;;;9.49;100.00;97250.72;6103903;19;19999;-73
2023/12/25 00:06:20;;;;;;;1.73;0.70;;;;;;;9.52;100.00;97271.25;6103003;19;19999;-73
2023/12/25 00:08:20;;;;;;;1.60;1.13;;;;;;;9.45;100.00;97266.53;6104292;19;20139;-73
2023/12/25 00:10:21;;;;;;;1.40;1.02;;;;;;;9.41;100.00;97265.72;6102920;19;20027;-73
2023/12/25 00:12:23;;;;;;;2.63;0.70;;;;;;;9.44;100.00;97269.69;6101613;19;20351;-73
2023/12/25 00:14:23;;;;;;;0.75;0.60;;;;;;;9.46;100.00;97270.06;6103798;19;20331;-73
2023/12/25 00:16:26;;;;;;;1.60;0.80;;;;;;;9.44;100.00;97291.78;6102633;19;20002;-73
2023/12/25 00:18:27;;;;;;;0.90;0.90;;;;;;;9.43;100.00;97301.22;6103366;19;20010;-73
2023/12/25 00:20:27;;;;;;;1.33;0.77;;;;;;;9.40;100.00;97296.50;6103034;19;20420;-73
2023/12/25 00:22:27;;;;;;;1.63;0.73;;;;;;;9.42;100.00;97294.13;6100626;19;20468;-73
2023/12/25 00:24:27;;;;;;;0.95;0.80;;;;;;;9.44;100.00;97294.53;6102037;19;20002;-73
2023/12/25 00:26:28;;;;;;;3.53;0.95;;;;;;;9.45;100.00;97293.34;6102788;19;20443;-73
2023/12/25 00:28:28;;;;;;;2.08;0.80;;;;;;;9.43;100.00;97313.06;6103039;19;20228;-73
2023/12/25 00:30:28;;;;;;;0.82;0.60;;;;;;;9.41;100.00;97298.06;6102082;19;20013;-73
2023/12/25 00:32:28;;;;;;;1.75;0.80;;;;;;;9.39;100.00;97290.19;6100320;19;20009;-73
2023/12/25 00:34:29;;;;;;;2.60;0.70;;;;;;;9.34;100.00;97292.56;6099786;19;20007;-73
2023/12/25 00:36:29;;;;;;;1.67;0.80;;;;;;;9.41;100.00;97287.03;6102830;19;20375;-73
2023/12/25 00:38:29;;;;;;;0.85;0.60;;;;;;;9.38;100.00;97291.38;6103434;19;20007;-73
2023/12/25 00:40:30;;;;;;;2.15;0.70;;;;;;;9.27;100.00;97296.16;6103169;19;20023;-73
2023/12/25 00:42:30;;;;;;;1.05;0.95;;;;;;;9.31;100.00;97288.63;6101510;19;20006;-73
2023/12/25 00:44:30;;;;;;;0.77;0.73;;;;;;;9.24;100.00;97278.41;6101929;19;20085;-73
2023/12/25 00:46:31;;;;;;;0.70;0.70;;;;;;;9.24;100.00;97285.91;6102354;19;20392;-73
2023/12/25 00:48:31;;;;;;;2.47;0.95;;;;;;;9.19;100.00;97278.81;6102532;19;20060;-73
2023/12/25 00:50:31;;;;;;;1.90;0.80;;;;;;;9.22;100.00;97255.16;6102639;19;20019;-73
2023/12/25 00:52:31;;;;;;;1.75;0.70;;;;;;;9.25;100.00;97254.34;6099952;19;20010;-73
2023/12/25 00:54:32;;;;;;;1.08;0.80;;;;;;;9.27;100.00;97294.19;6102526;19;20334;-73
2023/12/25 00:56:32;;;;;;;0.80;0.75;;;;;;;9.21;100.00;97254.38;6100235;19;20011;-73
2023/12/25 00:58:32;;;;;;;0.90;0.70;;;;;;;9.19;100.00;97256.75;6102328;19;20011;-73
2023/12/25 01:00:33;;;;;;;2.70;0.70;;;;;;;9.18;100.00;97259.88;6102362;19;20370;-73
2023/12/25 01:02:33;;;;;;;0.80;0.75;;;;;;;9.16;100.00;97270.53;6100313;19;20006;-73
2023/12/25 01:04:33;;;;;;;1.85;0.70;;;;;;;9.18;100.00;97281.97;6101715;19;20109;-73
2023/12/25 01:06:34;;;;;;;2.30;0.80;;;;;;;9.18;100.00;97263.44;6101334;19;20069;-73
2023/12/25 01:08:34;;;;;;;2.13;0.70;;;;;;;9.25;100.00;97244.09;6102033;19;20388;-73
2023/12/25 01:10:35;;;;;;;1.00;0.90;;;;;;;9.27;100.00;97257.53;6101648;19;20006;-73
2023/12/25 01:12:35;;;;;;;0.65;0.65;;;;;;;9.36;100.00;97257.09;6099683;19;20006;-73
2023/12/25 01:14:35;;;;;;;1.02;0.70;;;;;;;9.35;100.00;97256.31;6101695;19;20010;-73
2023/12/25 01:16:37;;;;;;;0.80;0.73;;;;;;;9.35;100.00;97256.31;6102020;19;20030;-73
2023/12/25 01:18:37;;;;;;;1.40;0.80;;;;;;;9.39;100.00;97270.09;6101867;19;20346;-73
2023/12/25 01:20:37;;;;;;;1.02;0.68;;;;;;;9.41;100.00;97265.72;6101145;19;20122;-73
2023/12/25 01:22:38;;;;;;;0.60;0.60;;;;;;;9.38;100.00;97258.25;6100634;19;20002;-73
2023/12/25 01:24:38;;;;;;;2.03;0.70;;;;;;;9.36;100.00;97254.34;6101655;19;20036;-73
2023/12/25 01:26:38;;;;;;;0.82;0.70;;;;;;;9.32;100.00;97257.09;6101485;19;20019;-73
2023/12/25 01:28:38;;;;;;;1.80;0.70;;;;;;;9.36;100.00;97260.63;6101261;19;20320;-73
2023/12/25 01:30:39;;;;;;;0.77;0.77;;;;;;;9.33;100.00;97274.44;6101111;19;20036;-73
2023/12/25 01:32:39;;;;;;;0.70;0.70;;;;;;;9.33;100.00;97277.19;6099645;19;20010;-73
2023/12/25 01:34:39;;;;;;;1.08;0.70;;;;;;;9.38;100.00;97277.59;6102416;19;20086;-73
2023/12/25 01:36:40;;;;;;;0.95;0.70;;;;;;;9.37;100.00;97281.53;6101734;19;20031;-73
2023/12/25 01:38:40;;;;;;;0.70;0.70;;;;;;;9.38;100.00;97277.59;6100305;19;20035;-73
2023/12/25 01:40:44;;;;;;;1.08;0.70;;;;;;;9.43;100.00;97260.63;6101474;19;20010;-73
2023/12/25 01:42:45;;;;;;;0.80;0.80;;;;;;;9.46;100.00;97281.91;6100651;19;20003;-73
2023/12/25 01:44:46;;;;;;;0.65;0.65;;;;;;;9.43;100.00;97287.41;6100824;19;20511;-73
2023/12/25 01:46:47;;;;;;;0.60;0.60;;;;;;;9.49;100.00;97289.38;6101184;19;20006;-73
2023/12/25 01:48:51;;;;;;;0.82;0.60;;;;;;;9.46;100.00;97286.63;6092428;19;20936;-73
2023/12/25 01:50:53;;;;;;;0.90;0.57;;;;;;;9.47;100.00;97291.75;6099636;19;20010;-73
2023/12/25 01:52:54;;;;;;;0.88;0.60;;;;;;;9.40;100.00;97280.72;6099054;19;20006;-73
2023/12/25 01:54:56;;;;;;;0.98;0.80;;;;;;;9.35;100.00;97283.91;6100334;19;20422;-73
2023/12/25 01:56:57;;;;;;;1.15;0.68;;;;;;;9.33;100.00;97293.75;6100056;19;20010;-73
2023/12/25 01:58:57;;;;;;;0.82;0.60;;;;;;;9.22;100.00;97275.25;6103178;19;20463;-73
2023/12/25 02:00:57;;;;;;;1.08;0.65;;;;;;;9.25;100.00;97284.72;6100410;19;20007;-73
2023/12/25 02:03:00;;;;;;;2.08;1.67;;;;;;;9.29;100.00;97289.03;6099200;19;20482;-73
2023/12/25 02:05:00;;;;;;;1.65;0.90;;;;;;;9.26;100.00;97294.56;6101649;19;20021;-73
2023/12/25 02:07:01;;;;;;;1.00;0.70;;;;;;;9.21;100.00;97303.25;6100639;19;20010;-73
2023/12/25 02:09:02;;;;;;;1.92;0.70;;;;;;;9.24;100.00;97299.69;6099420;19;20006;-73
2023/12/25 02:11:04;;;;;;;6.43;1.00;;;;;;;9.18;100.00;97301.28;6099046;19;20007;-73
2023/12/25 02:13:05;;;;;;;0.88;0.80;;;;;;;9.21;100.00;97306.03;6101220;19;20070;-73
2023/12/25 02:15:06;;;;;;;1.33;0.70;;;;;;;9.20;100.00;97313.50;6100924;19;20015;-73
2023/12/25 02:17:07;;;;;;;1.92;0.70;;;;;;;9.17;100.00;97313.50;6100350;19;20006;-73
2023/12/25 02:19:19;;;;;;;1.25;0.63;;;;;;;9.26;100.00;97317.44;6101804;19;20431;-73
2023/12/25 02:21:20;;;;;;;0.90;0.60;;;;;;;9.24;100.00;97311.53;6098236;19;20030;-73
2023/12/25 02:23:25;;;;;;;1.58;0.70;;;;;;;9.25;100.00;97331.63;6099484;19;20247;-73
2023/12/25 02:25:33;;;;;;;0.60;0.60;;;;;;;9.18;100.00;97321.38;6100453;19;20023;-73
2023/12/25 02:27:34;;;;;;;0.80;0.65;;;;;;;9.18;100.00;97323.34;6099804;19;20003;-73
2023/12/25 02:29:34;;;;;;;2.80;0.80;;;;;;;9.20;100.00;97316.28;6100998;19;20012;-73
2023/12/25 02:31:34;;;;;;;0.40;0.40;;;;;;;9.22;100.00;97319.41;6098461;19;20043;-73
2023/12/25 02:33:35;;;;;;;1.23;0.60;;;;;;;9.19;100.00;97309.19;6097578;19;20090;-73
2023/12/25 02:35:35;;;;;;;1.25;0.60;;;;;;;9.16;100.00;97303.66;6100340;19;20006;-73
2023/12/25 02:37:35;;;;;;;0.55;0.50;;;;;;;9.16;100.00;97304.44;6099641;19;20252;-73
2023/12/25 02:39:36;;;;;;;1.42;0.77;;;;;;;9.19;100.00;97314.69;6100315;19;20364;-73
2023/12/25 02:41:36;;;;;;;0.60;0.60;;;;;;;9.14;100.00;97311.56;6098466;19;20094;-73
2023/12/25 02:43:36;;;;;;;0.60;0.60;;;;;;;9.17;100.00;97317.06;6098635;19;20341;-73
2023/12/25 02:45:36;;;;;;;0.50;0.50;;;;;;;9.18;100.00;97321.38;6099568;19;20020;-73
2023/12/25 02:47:37;;;;;;;1.10;0.50;;;;;;;9.25;100.00;97328.88;6100683;19;20001;-73
2023/12/25 02:49:37;;;;;;;0.57;0.57;;;;;;;9.12;100.00;97323.00;6092760;19;20326;-73
2023/12/25 02:51:37;;;;;;;3.00;1.92;;;;;;;9.10;100.00;97319.03;6090729;19;20007;-73
2023/12/25 02:53:38;;;;;;;0.70;0.50;;;;;;;9.08;100.00;97332.44;6091951;19;20013;-73
2023/12/25 02:55:39;;;;;;;0.70;0.70;;;;;;;9.05;100.00;97342.31;6089453;19;20379;-73
2023/12/25 02:57:39;;;;;;;0.50;0.50;;;;;;;9.01;100.00;97331.25;6094587;19;20011;-73
2023/12/25 02:59:39;;;;;;;1.20;0.60;;;;;;;9.01;100.00;97338.75;6096380;19;20349;-73
2023/12/25 03:01:40;;;;;;;1.08;0.80;;;;;;;9.01;100.00;97334.00;6095314;19;20018;-73
2023/12/25 03:03:40;;;;;;;0.60;0.60;;;;;;;9.07;100.00;97325.34;6096740;19;19999;-73
2023/12/25 03:05:40;;;;;;;0.60;0.60;;;;;;;9.08;100.00;97335.19;6095881;19;20463;-73
2023/12/25 03:07:41;;;;;;;0.60;0.60;;;;;;;9.09;100.00;97328.50;6097803;19;20732;-73
2023/12/25 03:09:41;;;;;;;0.70;0.63;;;;;;;9.03;100.00;97319.84;6095875;19;20002;-73
2023/12/25 03:11:41;;;;;;;0.93;0.40;;;;;;;9.03;100.00;97321.81;6094646;19;20002;-73
2023/12/25 03:13:41;;;;;;;2.72;0.80;;;;;;;8.98;100.00;97329.28;6096693;19;20017;-73
2023/12/25 03:15:42;;;;;;;0.50;0.50;;;;;;;9.01;100.00;97316.69;6096401;19;20329;-73
2023/12/25 03:17:42;;;;;;;0.40;0.40;;;;;;;8.98;100.00;97326.53;6096627;19;20017;-73
2023/12/25 03:19:42;;;;;;;1.25;0.50;;;;;;;8.96;100.00;97326.16;6096317;19;20023;-73
2023/12/25 03:21:43;;;;;;;0.70;0.60;;;;;;;8.92;100.00;97341.13;6095390;19;20009;-73
2023/12/25 03:23:43;;;;;;;0.68;0.60;;;;;;;8.92;100.00;97333.63;6095790;19;20015;-73
2023/12/25 03:25:43;;;;;;;0.57;0.57;;;;;;;8.98;100.00;97339.53;6095030;19;19998;-73
2023/12/25 03:27:44;;;;;;;0.85;0.60;;;;;;;8.91;100.00;97323.78;6096295;19;20010;-73
2023/12/25 03:29:44;;;;;;;0.40;0.40;;;;;;;8.92;100.00;97332.84;6095548;19;20010;-73
2023/12/25 03:31:44;;;;;;;1.27;0.50;;;;;;;8.88;100.00;97321.81;6094749;19;20006;-73
2023/12/25 03:33:45;;;;;;;1.55;0.52;;;;;;;8.90;100.00;97311.19;6096603;19;21257;-73
2023/12/25 03:35:45;;;;;;;0.40;0.40;;;;;;;8.91;100.00;97312.75;6094702;19;20014;-73
2023/12/25 03:37:46;;;;;;;0.50;0.50;;;;;;;8.89;100.00;97309.59;6095632;19;20007;-73
2023/12/25 03:39:46;;;;;;;0.50;0.50;;;;;;;8.92;100.00;97302.50;6096244;19;20755;-73
2023/12/25 03:41:46;;;;;;;0.65;0.65;;;;;;;8.91;100.00;97307.22;6094429;19;20011;-73
2023/12/25 03:43:46;;;;;;;0.50;0.50;;;;;;;8.87;100.00;97311.97;6095723;19;20021;-73
2023/12/25 03:45:47;;;;;;;0.50;0.50;;;;;;;8.87;100.00;97306.47;6095296;19;20023;-73
2023/12/25 03:47:47;;;;;;;0.82;0.60;;;;;;;8.88;100.00;97305.28;6094827;19;20021;-73
2023/12/25 03:49:47;;;;;;;0.50;0.50;;;;;;;8.88;100.00;97319.06;6098309;19;20007;-73
2023/12/25 03:51:48;;;;;;;0.50;0.50;;;;;;;8.86;100.00;97315.91;6101648;19;20467;-73
2023/12/25 03:53:48;;;;;;;0.85;0.50;;;;;;;8.85;100.00;97319.03;6102896;19;20031;-73
2023/12/25 03:55:48;;;;;;;0.50;0.50;;;;;;;8.93;100.00;97324.16;6102492;19;20006;-73
2023/12/25 03:57:49;;;;;;;0.40;0.40;;;;;;;8.91;100.00;97307.22;6103257;19;20027;-73
2023/12/25 03:59:49;;;;;;;0.45;0.45;;;;;;;8.87;100.00;97306.47;6103219;19;20039;-73
2023/12/25 04:01:49;;;;;;;0.50;0.50;;;;;;;8.87;100.00;97308.44;6100856;19;20017;-73
2023/12/25 04:03:50;;;;;;;0.50;0.50;;;;;;;8.91;100.00;97323.00;6101263;19;20134;-73
2023/12/25 04:05:50;;;;;;;0.50;0.50;;;;;;;8.87;100.00;97324.97;6102741;19;20018;-73
2023/12/25 04:07:50;;;;;;;0.50;0.50;;;;;;;8.86;100.00;97339.97;6101751;19;20011;-73
2023/12/25 04:09:51;;;;;;;0.93;0.52;;;;;;;8.88;100.00;97330.09;6102861;19;20686;-73
2023/12/25 04:11:51;;;;;;;0.40;0.40;;;;;;;8.96;100.00;97323.41;6100974;19;20010;-73
2023/12/25 04:13:54;;;;;;;1.38;0.98;;;;;;;8.95;100.00;97318.28;6102888;19;20491;-73
2023/12/25 04:15:54;;;;;;;0.68;0.50;;;;;;;8.97;100.00;97324.19;6101008;19;20003;-73
2023/12/25 04:17:56;;;;;;;1.15;0.65;;;;;;;8.98;100.00;97317.47;6102623;19;20122;-73
2023/12/25 04:19:56;;;;;;;0.50;0.50;;;;;;;8.96;100.00;97312.34;6102084;19;20078;-73
2023/12/25 04:21:56;;;;;;;0.60;0.50;;;;;;;9.00;100.00;97332.44;6100573;19;20665;-73
2023/12/25 04:23:58;;;;;;;0.50;0.50;;;;;;;9.06;100.00;97323.78;6102324;19;20007;-72
2023/12/25 04:25:58;;;;;;;0.50;0.50;;;;;;;9.01;100.00;97331.25;6101680;19;20018;-73
2023/12/25 04:27:58;;;;;;;0.50;0.50;;;;;;;9.01;100.00;97300.91;6102604;19;20546;-73
2023/12/25 04:29:59;;;;;;;0.40;0.40;;;;;;;8.99;100.00;97319.84;6102169;19;20006;-73
2023/12/25 04:31:59;;;;;;;0.60;0.60;;;;;;;8.94;100.00;97317.50;6100773;19;20015;-73
2023/12/25 04:33:59;;;;;;;0.43;0.43;;;;;;;8.93;100.00;97315.09;6102586;19;20006;-73
2023/12/25 04:35:59;;;;;;;0.40;0.40;;;;;;;8.92;100.00;97300.53;6100696;19;20003;-73
2023/12/25 04:38:00;;;;;;;0.50;0.50;;;;;;;8.96;100.00;97312.34;6101542;19;20010;-73
2023/12/25 04:40:00;;;;;;;0.50;0.50;;;;;;;9.00;100.00;97306.81;6101683;19;20300;-73
2023/12/25 04:42:01;;;;;;;0.50;0.50;;;;;;;9.04;100.00;97304.88;6100706;19;20002;-73
2023/12/25 04:44:01;;;;;;;0.43;0.40;;;;;;;9.06;100.00;97309.97;6101154;19;20010;-73
2023/12/25 04:46:05;;;;;;;0.73;0.60;;;;;;;9.12;100.00;97300.13;6100900;19;20395;-73
2023/12/25 04:48:05;;;;;;;1.17;0.50;;;;;;;9.09;100.00;97306.41;6100726;19;20850;-73
2023/12/25 04:50:06;;;;;;;0.55;0.55;;;;;;;9.06;100.00;97304.47;6100245;19;20733;-73
2023/12/25 04:52:07;;;;;;;0.50;0.50;;;;;;;9.06;100.00;97308.00;6099614;19;20006;-73
2023/12/25 04:54:07;;;;;;;0.47;0.47;;;;;;;9.07;100.00;97314.31;6101279;19;19994;-73
2023/12/25 04:56:11;;;;;;;1.33;0.50;;;;;;;9.04;100.00;97304.88;6101760;19;20010;-73
2023/12/25 04:58:11;;;;;;;0.40;0.40;;;;;;;9.11;100.00;97320.63;6101901;19;20010;-73
2023/12/25 05:00:12;;;;;;;0.73;0.50;;;;;;;9.09;100.00;97321.00;6102022;19;20006;-73
2023/12/25 05:02:12;;;;;;;0.40;0.40;;;;;;;8.99;100.00;97308.81;6101258;19;20337;-73
2023/12/25 05:04:13;;;;;;;0.82;0.60;;;;;;;8.99;100.00;97316.28;6101849;19;20006;-73
2023/12/25 05:06:13;;;;;;;0.40;0.40;;;;;;;8.92;100.00;97305.25;6101521;19;20011;-73
2023/12/25 05:08:14;;;;;;;0.40;0.40;;;;;;;8.97;100.00;97307.63;6101627;19;20007;-73
2023/12/25 05:10:14;;;;;;;0.50;0.50;;;;;;;9.08;100.00;97318.66;6102735;19;20034;-73
2023/12/25 05:12:14;;;;;;;0.50;0.50;;;;;;;9.02;100.00;97307.25;6100504;19;20007;-73
2023/12/25 05:14:15;;;;;;;0.63;0.50;;;;;;;9.03;100.00;97324.59;6101392;19;20062;-73
2023/12/25 05:16:15;;;;;;;0.40;0.40;;;;;;;9.07;100.00;97330.88;6103012;19;20073;-73
2023/12/25 05:18:16;;;;;;;0.60;0.60;;;;;;;9.06;100.00;97330.09;6101483;19;19999;-73
2023/12/25 05:20:16;;;;;;;0.60;0.60;;;;;;;9.09;100.00;97328.50;6100396;19;20420;-73
2023/12/25 05:22:17;;;;;;;0.50;0.50;;;;;;;9.06;100.00;97316.28;6100764;19;20011;-73
2023/12/25 05:24:17;;;;;;;0.50;0.50;;;;;;;9.07;100.00;97314.31;6101910;19;20532;-73
2023/12/25 05:26:18;;;;;;;1.52;0.55;;;;;;;9.05;100.00;97320.22;6101312;19;20006;-73
2023/12/25 05:28:18;;;;;;;0.65;0.50;;;;;;;9.01;100.00;97328.50;6101995;19;20027;-73
2023/12/25 05:30:18;;;;;;;0.50;0.50;;;;;;;9.06;100.00;97335.59;6101372;19;20774;-73
2023/12/25 05:32:19;;;;;;;0.63;0.50;;;;;;;9.09;100.00;97317.47;6100402;19;20006;-73
2023/12/25 05:34:19;;;;;;;0.90;0.50;;;;;;;9.13;100.00;97338.34;6099709;19;20010;-73
2023/12/25 05:36:19;;;;;;;0.77;0.60;;;;;;;9.20;100.00;97348.59;6101588;19;20007;-73
2023/12/25 05:38:20;;;;;;;0.50;0.50;;;;;;;9.16;100.00;97340.31;6101682;19;20007;-73
2023/12/25 05:40:20;;;;;;;0.65;0.50;;;;;;;9.13;100.00;97340.34;6101675;19;19994;-73
2023/12/25 05:42:20;;;;;;;0.50;0.50;;;;;;;9.13;100.00;97332.84;6100108;19;20018;-73
2023/12/25 05:44:20;;;;;;;0.50;0.50;;;;;;;9.17;100.00;97341.09;6101453;19;20029;-73
2023/12/25 05:46:21;;;;;;;1.08;0.68;;;;;;;9.19;100.00;97328.50;6100407;19;20047;-73
2023/12/25 05:48:21;;;;;;;0.55;0.50;;;;;;;9.17;100.00;97332.81;6101806;19;20006;-73
2023/12/25 05:50:22;;;;;;;0.55;0.55;;;;;;;9.19;100.00;97364.38;6100107;19;20011;-73
2023/12/25 05:52:22;;;;;;;0.52;0.50;;;;;;;9.22;100.00;97340.72;6099707;19;20102;-73
2023/12/25 05:54:23;;;;;;;0.55;0.40;;;;;;;9.21;100.00;97339.94;6100445;19;19998;-73
2023/12/25 05:56:23;;;;;;;0.40;0.40;;;;;;;9.18;100.00;97342.66;6101386;19;19998;-73
2023/12/25 05:58:23;;;;;;;0.43;0.43;;;;;;;9.17;100.00;97341.88;6100925;19;20034;-73
2023/12/25 06:00:24;;;;;;;0.57;0.57;;;;;;;9.17;100.00;97352.13;6101288;19;20327;-72
2023/12/25 06:02:24;;;;;;;0.60;0.60;;;;;;;9.28;100.00;97358.44;6100080;19;20007;-73
2023/12/25 06:04:24;;;;;;;0.60;0.60;;;;;;;9.31;100.00;97354.88;6100368;19;19998;-73
2023/12/25 06:06:25;;;;;;;0.50;0.50;;;;;;;9.37;100.00;97358.81;6100345;19;20002;-73
2023/12/25 06:08:25;;;;;;;0.50;0.50;;;;;;;9.41;100.00;97356.06;6101288;19;20327;-73
2023/12/25 06:10:25;;;;;;;0.68;0.68;;;;;;;9.34;100.00;97373.41;6098948;19;20034;-73
2023/12/25 06:12:25;;;;;;;0.40;0.40;;;;;;;9.39;100.00;97361.97;6098988;19;20447;-73
2023/12/25 06:14:26;;;;;;;0.50;0.50;;;;;;;9.30;100.00;97367.13;6100615;19;20062;-73
2023/12/25 06:16:26;;;;;;;1.23;0.50;;;;;;;9.36;100.00;97370.28;6100387;19;20014;-73
2023/12/25 06:18:27;;;;;;;0.40;0.40;;;;;;;9.41;100.00;97367.88;6099719;19;20003;-73
2023/12/25 06:20:27;;;;;;;0.40;0.40;;;;;;;9.29;100.00;97365.53;6100684;19;20009;-73
2023/12/25 06:22:27;;;;;;;0.50;0.50;;;;;;;9.29;100.00;97368.31;6099954;19;20284;-73
2023/12/25 06:24:28;;;;;;;0.47;0.47;;;;;;;9.35;100.00;97377.78;6100025;19;20347;-73
2023/12/25 06:26:28;;;;;;;0.82;0.80;;;;;;;9.29;100.00;97387.63;6100284;19;20010;-73
2023/12/25 06:28:29;;;;;;;0.50;0.50;;;;;;;9.31;100.00;97396.28;6100998;19;20341;-73
2023/12/25 06:30:29;;;;;;;0.50;0.50;;;;;;;9.28;100.00;97394.34;6099998;19;20003;-73
2023/12/25 06:32:29;;;;;;;0.65;0.65;;;;;;;9.37;100.00;97410.50;6096328;19;20393;-73
2023/12/25 06:34:30;;;;;;;0.60;0.60;;;;;;;9.34;100.00;97401.00;6099920;19;20007;-73
2023/12/25 06:36:30;;;;;;;0.63;0.52;;;;;;;9.26;100.00;97386.44;6099563;19;20392;-73
2023/12/25 06:38:30;;;;;;;1.65;0.60;;;;;;;9.25;100.00;97389.59;6100499;19;20041;-73
2023/12/25 06:40:31;;;;;;;0.40;0.40;;;;;;;9.27;100.00;97390.78;6099370;19;20002;-73
2023/12/25 06:42:31;;;;;;;0.40;0.40;;;;;;;9.19;100.00;97386.44;6100089;19;20006;-73
2023/12/25 06:44:31;;;;;;;1.13;0.40;;;;;;;9.22;100.00;97362.78;6099020;19;20122;-73
2023/12/25 06:46:32;;;;;;;0.50;0.50;;;;;;;9.10;100.00;97371.47;6097682;19;20006;-73
2023/12/25 06:48:32;;;;;;;0.40;0.40;;;;;;;9.07;100.00;97378.56;6093739;19;20019;-73
2023/12/25 06:50:32;;;;;;;0.50;0.50;;;;;;;9.13;100.00;97382.50;6097882;19;20363;-73
2023/12/25 06:52:33;;;;;;;0.40;0.40;;;;;;;9.22;100.00;97393.16;6098792;19;20462;-73
2023/12/25 06:54:34;;;;;;;1.85;0.70;;;;;;;9.22;100.00;97387.63;6099059;19;20010;-73
2023/12/25 06:56:34;;;;;;;0.88;0.63;;;;;;;9.28;100.00;97402.63;6099413;19;20429;-73
2023/12/25 06:58:34;;;;;;;1.80;0.70;;;;;;;9.35;100.00;97405.38;6100365;19;20006;-73
2023/12/25 07:00:34;;;;;;;0.95;0.60;;;;;;;9.36;100.00;97398.66;6099493;19;20736;-73
2023/12/25 07:02:35;;;;;;;0.85;0.85;;;;;;;9.43;100.00;97406.13;6097772;19;20013;-73
2023/12/25 07:04:38;;;;;;;0.80;0.80;;;;;;;9.45;100.00;97399.03;6097211;19;20028;-73
2023/12/25 07:06:38;;;;;;;3.13;0.70;;;;;;;9.46;100.00;97408.13;6098859;19;20010;-73
2023/12/25 07:08:39;;;;;;;0.73;0.60;;;;;;;9.47;100.00;97395.88;6096943;19;20455;-73
2023/12/25 07:10:39;;;;;;;0.50;0.50;;;;;;;9.41;100.00;97395.47;6099445;19;20107;-73
2023/12/25 07:12:40;;;;;;;0.60;0.60;;;;;;;9.38;100.00;97392.75;6095947;19;20032;-73
2023/12/25 07:14:45;;;;;;;0.60;0.60;;;;;;;9.35;100.00;97385.22;6095589;19;20003;-73
2023/12/25 07:16:45;;;;;;;1.60;0.70;;;;;;;9.44;100.00;97391.16;6099010;19;20085;-73
2023/12/25 07:18:45;;;;;;;0.60;0.60;;;;;;;9.51;100.00;97380.09;6096583;19;20019;-73
2023/12/25 07:20:45;;;;;;;0.70;0.70;;;;;;;9.44;100.00;97385.66;6097047;19;20010;-73
2023/12/25 07:22:46;;;;;;;0.45;0.45;;;;;;;9.44;100.00;97391.94;6097409;19;20010;-73
2023/12/25 07:24:46;;;;;;;0.93;0.80;;;;;;;9.42;100.00;97386.00;6098999;19;20062;-73
2023/12/25 07:26:46;;;;;;;1.98;1.00;;;;;;;9.47;100.00;97396.66;6096533;19;19999;-73
2023/12/25 07:28:47;;;;;;;1.02;0.60;;;;;;;9.47;100.00;97380.09;6096472;19;20527;-73
2023/12/25 07:30:48;;;;;;;1.02;0.90;;;;;;;9.45;100.00;97389.97;6095967;19;20026;-73
2023/12/25 07:32:48;;;;;;;0.70;0.70;;;;;;;9.48;100.00;97389.16;6098865;19;20030;-73
2023/12/25 07:34:48;;;;;;;3.00;0.90;;;;;;;9.51;100.00;97407.69;6098574;19;20003;-73
2023/12/25 07:36:49;;;;;;;1.30;1.00;;;;;;;9.59;100.00;97414.78;6098894;19;20255;-73
2023/12/25 07:38:49;;;;;;;1.90;1.20;;;;;;;9.62;100.00;97414.00;6099291;19;20003;-73
2023/12/25 07:40:49;;;;;;;3.08;1.05;;;;;;;9.65;100.00;97423.47;6096654;19;20007;-73
2023/12/25 07:42:50;;;;;;;1.80;1.00;;;;;;;9.62;100.00;97415.97;6100200;19;20534;-73
2023/12/25 07:44:50;;;;;;;0.70;0.70;;;;;;;9.66;100.00;97425.81;6104452;19;20382;-73
2023/12/25 07:46:50;;;;;;;0.82;0.80;;;;;;;9.68;100.00;97422.66;6104095;19;20027;-73
2023/12/25 07:48:51;;;;;;;1.20;0.80;;;;;;;9.70;100.00;97421.09;6102432;19;21121;-73
2023/12/25 07:50:51;;;;;;;3.05;0.82;;;;;;;9.70;100.00;97417.53;6095213;19;20009;-73
2023/12/25 07:52:51;;;;;;;1.33;0.75;;;;;;;9.66;100.00;97411.22;6096892;19;20338;-73
2023/12/25 07:54:54;;;;;;;0.88;0.60;;;;;;;9.64;100.00;97414.38;6096753;19;20502;-73
2023/12/25 07:56:54;;;;;;;0.50;0.50;;;;;;;9.62;100.00;97422.28;6096386;19;20006;-73
2023/12/25 07:58:55;;;;;;;1.35;0.60;;;;;;;9.69;100.00;97427.81;6095151;19;20797;-73
2023/12/25 08:00:55;;;;;;;0.98;0.60;;;;;;;9.68;100.00;97436.47;6094257;19;20010;-73
2023/12/25 08:02:55;;;;;;;1.02;0.70;;;;;;;9.63;100.00;97436.88;6096265;19;20006;-73
2023/12/25 08:04:56;;;;;;;0.60;0.60;;;;;;;9.59;100.00;97434.13;6096318;19;20010;-73
2023/12/25 08:06:56;;;;;;;4.07;1.00;;;;;;;9.65;100.00;97442.78;6095070;19;20041;-73
2023/12/25 08:08:56;;;;;;;0.65;0.60;;;;;;;9.68;100.00;97445.56;6095449;19;20015;-73
2023/12/25 08:10:57;;;;;;;1.10;0.70;;;;;;;9.67;100.00;97440.41;6093906;19;20867;-73
2023/12/25 08:12:58;;;;;;;1.75;0.90;;;;;;;9.65;100.00;97440.81;6094985;19;20010;-73
2023/12/25 08:14:59;;;;;;;1.15;0.75;;;;;;;9.67;100.00;97452.25;6095183;19;21119;-73
2023/12/25 08:16:59;;;;;;;0.70;0.60;;;;;;;9.64;100.00;97442.00;6093475;19;20038;-73
2023/12/25 08:18:59;;;;;;;0.98;0.65;;;;;;;9.70;100.00;97445.94;6093286;19;20006;-73
2023/12/25 08:21:00;;;;;;;0.52;0.50;;;;;;;9.69;100.00;97444.38;6093385;19;20093;-73
2023/12/25 08:23:00;;;;;;;0.52;0.52;;;;;;;9.65;100.00;97440.03;6095466;19;20034;-73
2023/12/25 08:25:00;;;;;;;1.80;0.52;;;;;;;9.66;100.00;97458.97;6095410;19;20587;-73
2023/12/25 08:27:02;;;;;;;0.50;0.50;;;;;;;9.65;100.00;97460.16;6095020;19;20010;-73
2023/12/25 08:29:03;;;;;;;1.00;0.60;;;;;;;9.72;100.00;97453.84;6094811;19;20042;-73
2023/12/25 08:31:04;;;;;;;1.02;0.73;;;;;;;9.65;100.00;97445.56;6093933;19;20148;-73
2023/12/25 08:33:04;;;;;;;1.90;1.00;;;;;;;9.68;100.00;97459.38;6095880;19;20010;-73
2023/12/25 08:35:04;;;;;;;1.40;0.90;;;;;;;9.65;100.00;97456.59;6094876;19;20082;-73
2023/12/25 08:37:05;;;;;;;1.73;0.75;;;;;;;9.66;100.00;97449.88;6095111;19;20486;-73
2023/12/25 08:39:05;;;;;;;2.15;1.00;;;;;;;9.64;100.00;97452.25;6095020;19;20507;-73
2023/12/25 08:41:05;;;;;;;2.03;1.25;;;;;;;9.60;100.00;97455.03;6093754;19;20002;-73
2023/12/25 08:43:06;;;;;;;2.53;1.10;;;;;;;9.63;100.00;97461.75;6095373;19;20007;-73
2023/12/25 08:45:07;;;;;;;0.75;0.70;;;;;;;9.67;100.00;97448.69;6095215;19;20003;-73
2023/12/25 08:47:08;;;;;;;1.17;0.85;;;;;;;9.69;100.00;97449.13;6094452;19;20011;-73
2023/12/25 08:49:08;;;;;;;0.57;0.57;;;;;;;9.64;100.00;97469.63;6095140;19;20673;-73
2023/12/25 08:51:08;;;;;;;0.82;0.70;;;;;;;9.65;100.00;97456.59;6101937;19;20011;-73
2023/12/25 08:53:09;;;;;;;1.33;1.00;;;;;;;9.62;100.00;97477.53;6102207;19;20688;-73
2023/12/25 08:55:09;;;;;;;1.20;0.90;;;;;;;9.63;100.00;97479.09;6100570;19;20006;-73
2023/12/25 08:57:09;;;;;;;0.77;0.60;;;;;;;9.65;100.00;97476.72;6101769;19;20006;-73
2023/12/25 08:59:10;;;;;;;0.50;0.50;;;;;;;9.70;100.00;97470.03;6102059;19;20008;-73
2023/12/25 09:01:10;;;;;;;0.50;0.50;;;;;;;9.76;100.00;97487.75;6100479;19;20450;-73
2023/12/25 09:03:10;;;;;;;0.55;0.50;;;;;;;9.81;100.00;97484.59;6102744;19;20603;-73
2023/12/25 09:05:11;;;;;;;0.40;0.40;;;;;;;9.84;100.00;97497.59;6102304;19;20030;-73
2023/12/25 09:07:11;;;;;;;0.50;0.50;;;;;;;9.83;100.00;97494.06;6100890;19;20026;-73
2023/12/25 09:09:12;;;;;;;0.40;0.40;;;;;;;9.80;100.00;97491.31;6102899;19;20388;-73
2023/12/25 09:11:12;;;;;;;0.40;0.40;;;;;;;9.82;100.00;97502.75;6101460;19;20091;-73
2023/12/25 09:13:12;;;;;;;0.50;0.50;;;;;;;9.80;100.00;97499.59;6101613;19;20007;-73
2023/12/25 09:15:13;;;;;;;1.40;0.68;;;;;;;9.82;100.00;97494.47;6102461;19;20030;-73
2023/12/25 09:17:13;;;;;;;1.15;0.70;;;;;;;9.91;100.00;97505.88;6101876;19;20006;-73
2023/12/25 09:19:13;;;;;;;1.17;0.70;;;;;;;9.92;100.00;97498.38;6100833;19;19999;-73
2023/12/25 09:21:17;;;;;;;0.90;0.60;;;;;;;9.85;100.00;97497.22;6100565;19;20066;-73
2023/12/25 09:23:18;;;;;;;0.93;0.60;;;;;;;9.86;100.00;97503.53;6102288;19;20014;-73
2023/12/25 09:25:18;;;;;;;0.85;0.70;;;;;;;9.88;100.00;97495.63;6101748;19;20007;-72
2023/12/25 09:27:18;;;;;;;0.57;0.50;;;;;;;9.85;100.00;97486.19;6099495;19;20007;-73